KHAI/HAI METAR and TAF weather

Enter ICAO airport designator
Station Type Date Time Source
KHAI METAR 2019/08/22 04:36 UTC NOAA

KHAI 220436Z AUTO 00000KT 10SM SCT045 BKN050 BKN055 22/19 A2997 RMK AO2 T02220187


Station Type Date Time Source
KHAI Decoded METAR 2019/08/22 04:36 UTC NOAA

Station name not available
Aug 22, 2019 - 12:36 AM EDT / 2019.08.22 0436 UTC
Wind: Calm:0
Visibility: 10 mile(s):0
Sky conditions: mostly cloudy
Temperature: 72.0 F (22.2 C)
Dew Point: 65.7 F (18.7 C)
Relative Humidity: 80%
Pressure (altimeter): 29.97 in. Hg (1014 hPa)
ob: KHAI 220436Z AUTO 00000KT 10SM SCT045 BKN050 BKN055 22/19 A2997 RMK AO2 T02220187
cycle: 4

Station Type Date Time Source
KHAI TAF UTC NOAA

Error!

Example: see airport list